Data for 01/31/2015

Time Sea-Level Adjusted Pressure Absolute Pressure Temperature Relative Humidity Dew Point   
(mb) (inHg) (mb) (inHg) (C) (F) (%) (C) (F)
00:05 1019 30.09 848 25.04 -2.3 27.9 56 -9.8 14.3
00:10 1019 30.09 848 25.04 -2.7 27.1 59 -9.7 14.6
00:15 1019 30.09 848 25.04 -2.9 26.9 59 -9.8 14.4
00:20 1019 30.09 848 25.04 -2.9 26.8 59 -9.8 14.4
00:25 1019 30.09 848 25.04 -2.5 27.6 55 -10.3 13.4
00:30 1019 30.09 848 25.04 -2 28.4 55 -9.8 14.4
00:35 1019 30.09 848 25.04 -2 28.3 56 -9.6 14.7
00:40 1019 30.09 848 25.04 -2.2 28 56 -9.8 14.4
00:45 1019 30.09 848 25.04 -2.5 27.5 56 -10.1 13.9
00:50 1019 30.09 848 25.04 -2.7 27.2 59 -9.7 14.6
00:55 1019 30.09 848 25.04 -2.7 27.1 57 -10.1 13.7
01:00 1019 30.09 848 25.04 -2.6 27.3 57 -9.9 14.1
01:05 1019 30.09 849 25.07 -2.4 27.6 56 -10.1 13.8
01:10 1019 30.09 849 25.07 -2.6 27.3 59 -9.7 14.6
01:15 1019 30.09 849 25.07 -3.1 26.4 59 -10 14
01:20 1019 30.09 848 25.04 -2.9 26.7 57 -10.2 13.6
01:25 1019 30.09 848 25.04 -2.5 27.5 56 -10.2 13.6
01:30 1019 30.09 848 25.04 -2.3 27.9 55 -10.1 13.9
01:35 1019 30.09 848 25.04 -2.5 27.6 56 -10.1 13.7
01:40 1019 30.09 849 25.07 -2.5 27.5 56 -10.1 13.7
01:45 1019 30.09 849 25.07 -2.4 27.6 56 -10.1 13.8
01:50 1019 30.09 849 25.07 -2.5 27.5 57 -9.9 14.1
01:55 1019 30.09 849 25.07 -2.6 27.4 58 -9.7 14.5
02:00 1019 30.09 849 25.07 -2.6 27.3 59 -9.6 14.7
02:05 1020 30.12 849 25.07 -2.5 27.5 58 -9.7 14.6
02:10 1019 30.09 849 25.07 -2.3 27.8 58 -9.6 14.8
02:15 1019 30.09 849 25.07 -2.3 27.9 58 -9.5 14.9
02:20 1019 30.09 849 25.07 -2.4 27.8 59 -9.3 15.3
02:25 1019 30.09 849 25.07 -2.7 27.2 61 -9.1 15.6
02:30 1019 30.09 848 25.04 -3.4 25.9 65 -9.1 15.7
02:35 1019 30.09 848 25.04 -3.8 25.1 66 -9.3 15.2
02:40 1019 30.09 848 25.04 -3.4 25.8 66 -9 15.8
02:45 1019 30.09 848 25.04 -2.9 26.8 62 -9.2 15.4
02:50 1019 30.09 848 25.04 -2.5 27.4 61 -9 15.8
02:55 1019 30.09 848 25.04 -2.5 27.4 61 -9.1 15.6
03:00 1019 30.09 848 25.04 -2.4 27.8 60 -9.2 15.5
03:05 1019 30.09 848 25.04 -2.6 27.3 62 -8.8 16.1
03:10 1019 30.09 848 25.04 -2.9 26.8 62 -9.1 15.6
03:15 1019 30.09 848 25.04 -2.7 27.1 63 -8.9 16
03:20 1019 30.09 848 25.04 -2.5 27.6 63 -8.5 16.7
03:25 1019 30.09 848 25.04 -2.5 27.5 61 -8.9 15.9
03:30 1019 30.09 848 25.04 -2.7 27.2 61 -9.2 15.5
03:35 1019 30.09 848 25.04 -2.9 26.8 61 -9.4 15.1
03:40 1018 30.06 848 25.04 -3.1 26.4 61 -9.6 14.7
03:45 1018 30.06 847 25.01 -3.5 25.7 63 -9.6 14.7
03:50 1018 30.06 848 25.04 -4.1 24.6 65 -9.7 14.5
03:55 1018 30.06 847 25.01 -3.9 24.9 63 -9.9 14.1
04:00 1018 30.06 847 25.01 -3.6 25.5 63 -9.6 14.7
04:05 1018 30.06 847 25.01 -3.5 25.7 63 -9.6 14.7
04:10 1018 30.06 848 25.04 -3.2 26.2 62 -9.5 14.8
04:15 1018 30.06 848 25.04 -3.3 26 63 -9.4 15
04:20 1018 30.06 848 25.04 -3.4 25.9 63 -9.5 15
04:25 1018 30.06 848 25.04 -3.3 26.1 63 -9.4 15
04:30 1018 30.06 847 25.01 -3.3 26 63 -9.4 15.1
04:35 1018 30.06 847 25.01 -3.4 25.9 63 -9.4 15
04:40 1018 30.06 847 25.01 -3.9 24.9 67 -9.3 15.3
04:45 1018 30.06 847 25.01 -4.4 24.1 68 -9.5 14.9
04:50 1018 30.06 847 25.01 -4.5 23.9 68 -9.6 14.8
04:55 1018 30.06 847 25.01 -4.3 24.2 67 -9.6 14.7
05:00 1018 30.06 847 25.01 -4.1 24.7 66 -9.5 15
05:05 1018 30.06 847 25.01 -4 24.8 65 -9.6 14.7
05:10 1018 30.06 847 25.01 -3.7 25.3 65 -9.4 15
05:15 1018 30.06 847 25.01 -3.5 25.8 64 -9.3 15.2
05:20 1018 30.06 847 25.01 -3.2 26.3 62 -9.5 14.9
05:25 1018 30.06 847 25.01 -2.4 27.8 58 -9.5 14.9
05:30 1018 30.06 847 25.01 -2 28.5 58 -9.3 15.3
05:35 1018 30.06 847 25.01 -2.5 27.6 58 -9.5 14.8
05:40 1018 30.06 847 25.01 -2.9 26.7 61 -9.5 14.8
05:45 1018 30.06 847 25.01 -3.6 25.5 64 -9.5 15
05:50 1017 30.03 847 25.01 -3.8 25.1 63 -9.9 14.1
05:55 1017 30.03 847 25.01 -3.7 25.3 62 -10.1 13.9
06:00 1017 30.03 847 25.01 -3.6 25.6 61 -10 13.9
06:05 1018 30.06 847 25.01 -3.6 25.6 61 -10.1 13.8
06:10 1018 30.06 847 25.01 -3.5 25.7 61 -10 14
06:15 1017 30.03 847 25.01 -4 24.9 64 -9.9 14.2
06:20 1017 30.03 846 24.98 -4.1 24.6 62 -10.2 13.6
06:25 1017 30.03 847 25.01 -3.9 25 61 -10.3 13.5
06:30 1018 30.06 847 25.01 -3.7 25.3 62 -9.9 14.1
06:35 1018 30.06 847 25.01 -3.9 25 63 -10 13.9
06:40 1018 30.06 847 25.01 -3.9 24.9 65 -9.6 14.8
06:45 1018 30.06 847 25.01 -4.1 24.7 65 -9.7 14.6
06:50 1018 30.06 847 25.01 -4.3 24.3 67 -9.6 14.7
06:55 1018 30.06 847 25.01 -4.4 24 67 -9.6 14.8
07:00 1017 30.03 847 25.01 -4.5 23.8 67 -9.7 14.5
07:05 1017 30.03 847 25.01 -4.4 24 67 -9.6 14.6
07:10 1018 30.06 847 25.01 -4.2 24.4 66 -9.7 14.6
07:15 1018 30.06 847 25.01 -4.2 24.5 65 -9.7 14.5
07:20 1018 30.06 847 25.01 -3.8 25.1 63 -9.8 14.4
07:25 1018 30.06 847 25.01 -3.7 25.4 64 -9.6 14.8
07:30 1018 30.06 847 25.01 -3.9 25.1 64 -9.6 14.7
07:35 1018 30.06 847 25.01 -3.7 25.3 64 -9.7 14.6
07:40 1018 30.06 847 25.01 -3.7 25.3 64 -9.6 14.8
07:45 1018 30.06 847 25.01 -3.5 25.6 63 -9.5 14.8
07:50 1018 30.06 847 25.01 -3.7 25.3 64 -9.5 14.8
07:55 1018 30.06 847 25.01 -3.9 25.1 64 -9.8 14.4
08:00 1018 30.06 847 25.01 -3.7 25.4 63 -9.7 14.5
08:05 1018 30.06 847 25.01 -3.5 25.7 62 -9.7 14.6
08:10 1018 30.06 847 25.01 -3.4 25.9 63 -9.4 15
08:15 1018 30.06 847 25.01 -3.7 25.4 64 -9.6 14.8
08:20 1018 30.06 848 25.04 -3.6 25.5 60 -10.2 13.7
08:25 1018 30.06 848 25.04 -3.6 25.5 63 -9.6 14.7
08:30 1018 30.06 848 25.04 -4.1 24.7 66 -9.5 14.8
08:35 1018 30.06 847 25.01 -4.2 24.4 67 -9.5 14.9
08:40 1018 30.06 847 25.01 -4.4 24.1 66 -9.7 14.5
08:45 1018 30.06 847 25.01 -4.1 24.6 65 -9.8 14.3
08:50 1018 30.06 847 25.01 -3.9 24.9 64 -9.8 14.4
08:55 1017 30.03 847 25.01 -4.2 24.4 65 -9.9 14.2
09:00 1018 30.06 847 25.01 -4.1 24.6 65 -9.8 14.4
09:05 1018 30.06 847 25.01 -3.8 25.2 63 -9.8 14.4
09:10 1018 30.06 847 25.01 -3.5 25.7 63 -9.6 14.8
09:15 1018 30.06 847 25.01 -3.7 25.3 64 -9.5 14.9
09:20 1018 30.06 847 25.01 -4 24.7 65 -9.7 14.5
09:25 1018 30.06 847 25.01 -3.7 25.4 63 -9.7 14.6
09:30 1018 30.06 847 25.01 -3.7 25.4 64 -9.6 14.7
09:35 1018 30.06 847 25.01 -3.9 24.9 65 -9.6 14.6
09:40 1018 30.06 847 25.01 -3.3 26 62 -9.7 14.6
09:45 1018 30.06 847 25.01 -3 26.7 60 -9.7 14.5
09:50 1018 30.06 847 25.01 -2.5 27.6 59 -9.3 15.2
09:55 1018 30.06 847 25.01 -2.5 27.4 59 -9.5 15
10:00 1018 30.06 847 25.01 -2.4 27.7 58 -9.6 14.8
10:05 1018 30.06 847 25.01 -1.8 28.7 55 -9.6 14.6
10:10 1018 30.06 847 25.01 -1.2 29.8 53 -9.5 14.9
10:15 1018 30.06 847 25.01 -0.7 30.7 52 -9.4 15.1
10:20 1018 30.06 847 25.01 -0.8 30.6 54 -8.9 16.1
10:25 1018 30.06 847 25.01 -0.5 31 52 -9.3 15.2
10:30 1018 30.06 847 25.01 -0.2 31.6 53 -8.6 16.5
10:35 1018 30.06 847 25.01 -0.7 30.8 55 -8.7 16.4
10:40 1018 30.06 847 25.01 -0.9 30.4 54 -9.1 15.7
10:45 1018 30.06 847 25.01 -0.7 30.8 54 -8.9 16
10:50 1018 30.06 847 25.01 0.2 32.4 51 -8.8 16.2
10:55 1018 30.06 847 25.01 0.6 33.2 50 -8.5 16.6
11:00 1018 30.06 847 25.01 -0 32 54 -8.4 16.9
11:05 1018 30.06 847 25.01 -0.5 31.2 54 -8.6 16.5
11:10 1018 30.06 847 25.01 -0.4 31.2 56 -8.2 17.2
11:15 1018 30.06 847 25.01 -0.6 30.8 58 -7.8 17.9
11:20 1018 30.06 847 25.01 -0.5 31.1 56 -8.2 17.2
11:25 1018 30.06 847 25.01 -0.3 31.4 56 -8.1 17.5
11:30 1018 30.06 847 25.01 -0.3 31.5 55 -8.2 17.3
11:35 1018 30.06 847 25.01 -0.3 31.4 55 -8.3 17.1
11:40 1018 30.06 847 25.01 -0.1 31.7 54 -8.5 16.8
11:45 1018 30.06 847 25.01 0.1 32.1 54 -8.1 17.3
11:50 1018 30.06 847 25.01 0.2 32.3 54 -8 17.6
11:55 1018 30.06 847 25.01 0.1 32.2 55 -8 17.7
12:00 1018 30.06 847 25.01 0.3 32.5 53 -8.2 17.2
12:05 1018 30.06 847 25.01 0.4 32.8 53 -8 17.6
12:10 1018 30.06 847 25.01 0.6 33.1 53 -7.9 17.8
12:15 1018 30.06 847 25.01 0.5 33 54 -7.8 17.9
12:20 1018 30.06 847 25.01 0.5 32.9 55 -7.5 18.5
12:25 1018 30.06 847 25.01 0.5 33 57 -7.1 19.2
12:30 1018 30.06 847 25.01 0.3 32.6 57 -7.3 18.8
12:35 1018 30.06 847 25.01 0.5 32.9 52 -8.2 17.2
12:40 1018 30.06 847 25.01 0.5 32.8 56 -7.3 18.9
12:45 1018 30.06 847 25.01 1 33.8 55 -7.2 19.1
12:50 1018 30.06 847 25.01 1.4 34.4 53 -7.2 19
12:55 1018 30.06 848 25.04 1.3 34.3 50 -8 17.7
13:00 1018 30.06 847 25.01 1.1 33.9 52 -7.8 18
13:05 1018 30.06 847 25.01 1.3 34.3 53 -7.3 18.9
13:10 1018 30.06 847 25.01 1.3 34.4 53 -7.1 19.2
13:15 1018 30.06 847 25.01 1.6 34.9 49 -8 17.6
13:20 1018 30.06 848 25.04 2 35.6 50 -7.5 18.5
13:25 1018 30.06 848 25.04 2.1 35.7 49 -7.6 18.4
13:30 1018 30.06 847 25.01 1.9 35.4 47 -8.2 17.3
13:35 1018 30.06 848 25.04 2.3 36.2 46 -8.2 17.2
13:40 1018 30.06 848 25.04 2.9 37.2 44 -8.1 17.4
13:45 1018 30.06 848 25.04 2.5 36.5 46 -7.9 17.7
13:50 1018 30.06 848 25.04 2.6 36.6 47 -7.7 18.1
13:55 1018 30.06 848 25.04 2.6 36.8 48 -7.2 19
14:00 1018 30.06 848 25.04 2.7 36.8 48 -7.1 19.1
14:05 1018 30.06 848 25.04 3 37.4 48 -6.8 19.7
14:10 1018 30.06 847 25.01 3.1 37.7 47 -7.1 19.2
14:15 1018 30.06 848 25.04 3.4 38.1 47 -6.7 19.9
14:20 1018 30.06 848 25.04 3.2 37.7 49 -6.7 20
14:25 1018 30.06 848 25.04 3.4 38.1 51 -5.9 21.3
14:30 1019 30.09 848 25.04 2.7 36.8 52 -6.3 20.7
14:35 1019 30.09 848 25.04 3 37.4 51 -6.2 20.8
14:40 1019 30.09 848 25.04 3 37.4 51 -6.2 20.9
14:45 1019 30.09 848 25.04 2.9 37.2 53 -5.8 21.6
14:50 1019 30.09 848 25.04 2 35.7 55 -6.1 21
14:55 1019 30.09 848 25.04 1.5 34.7 56 -6.3 20.6
15:00 1019 30.09 848 25.04 1.3 34.3 56 -6.5 20.3
15:05 1019 30.09 848 25.04 1 33.8 57 -6.5 20.3
15:10 1019 30.09 848 25.04 0.8 33.4 55 -7.2 19
15:15 1019 30.09 848 25.04 0.5 32.9 56 -7.3 18.8
15:20 1019 30.09 848 25.04 0.4 32.8 56 -7.4 18.7
15:25 1019 30.09 848 25.04 0.3 32.6 57 -7.3 18.8
15:30 1019 30.09 848 25.04 0.3 32.6 57 -7.2 19
15:35 1019 30.09 848 25.04 0.4 32.8 56 -7.3 18.9
15:40 1019 30.09 848 25.04 0.2 32.4 57 -7.3 18.9
15:45 1019 30.09 848 25.04 0.2 32.4 58 -7.2 19
15:50 1019 30.09 848 25.04 0.3 32.5 57 -7.2 19
15:55 1019 30.09 849 25.07 0.1 32.2 59 -7 19.3
16:00 1019 30.09 849 25.07 -0.4 31.4 59 -7.3 18.8
16:05 1019 30.09 849 25.07 -0.3 31.5 59 -7.4 18.6
16:10 1019 30.09 849 25.07 -0.3 31.5 58 -7.6 18.3
16:15 1019 30.09 849 25.07 -0.2 31.7 58 -7.4 18.6
16:20 1019 30.09 849 25.07 -0.2 31.6 58 -7.6 18.3
16:25 1020 30.12 849 25.07 -0.2 31.6 57 -7.8 18
16:30 1020 30.12 849 25.07 -0.2 31.6 57 -7.7 18.2
16:35 1020 30.12 849 25.07 -0.2 31.6 57 -7.7 18.1
16:40 1020 30.12 849 25.07 -0.3 31.5 57 -7.9 17.7
16:45 1020 30.12 849 25.07 -0.5 31.2 56 -8.1 17.4
16:50 1020 30.12 849 25.07 -0.5 31.2 56 -8.3 17.1
16:55 1020 30.12 849 25.07 -0.6 30.9 57 -8.1 17.4
17:00 1020 30.12 849 25.07 -0.9 30.4 58 -8.1 17.3
17:05 1020 30.12 849 25.07 -1.1 30.1 58 -8.2 17.2
17:10 1020 30.12 849 25.07 -1.1 30 57 -8.5 16.7
17:15 1020 30.12 849 25.07 -1.2 29.9 58 -8.4 16.9
17:20 1020 30.12 849 25.07 -1.2 29.8 59 -8.2 17.2
17:25 1020 30.12 850 25.1 -1.5 29.3 61 -8 17.5
17:30 1020 30.12 850 25.1 -1.8 28.8 61 -8.2 17.2
17:35 1020 30.12 850 25.1 -2.1 28.2 62 -8.4 16.9
17:40 1020 30.12 850 25.1 -2.3 27.8 63 -8.4 16.9
17:45 1021 30.15 850 25.1 -2.5 27.5 64 -8.4 16.9
17:50 1021 30.15 850 25.1 -2.7 27.1 64 -8.6 16.6
17:55 1021 30.15 850 25.1 -2.8 26.9 64 -8.7 16.4
18:00 1021 30.15 850 25.1 -3 26.5 65 -8.8 16.2
18:05 1021 30.15 850 25.1 -3.2 26.3 66 -8.7 16.3
18:10 1021 30.15 850 25.1 -3.2 26.2 66 -8.6 16.5
18:15 1021 30.15 850 25.1 -3.5 25.7 67 -8.7 16.3
18:20 1021 30.15 850 25.1 -3.9 25 68 -8.9 15.9
18:25 1021 30.15 850 25.1 -4.3 24.2 69 -9.2 15.5
18:30 1021 30.15 850 25.1 -4.5 23.8 70 -9.3 15.3
18:35 1021 30.15 850 25.1 -4.6 23.6 69 -9.5 14.9
18:40 1021 30.15 851 25.13 -4.8 23.4 70 -9.5 14.9
18:45 1021 30.15 851 25.13 -5 22.9 70 -9.7 14.5
18:50 1022 30.18 851 25.13 -5 22.9 70 -9.8 14.4
18:55 1022 30.18 851 25.13 -5.1 22.9 68 -10 14
19:00 1022 30.18 851 25.13 -5.1 22.8 69 -9.9 14.1
19:05 1022 30.18 851 25.13 -5.2 22.7 70 -9.9 14.2
19:10 1022 30.18 851 25.13 -5.3 22.5 69 -10 13.9
19:15 1022 30.18 851 25.13 -5.3 22.5 69 -10.1 13.8
19:20 1022 30.18 851 25.13 -5.2 22.6 68 -10.2 13.7
19:25 1022 30.18 851 25.13 -5.4 22.4 68 -10.4 13.3
19:30 1022 30.18 851 25.13 -5.6 22 69 -10.4 13.3
19:35 1022 30.18 851 25.13 -5.7 21.7 69 -10.5 13.1
19:40 1022 30.18 851 25.13 -6 21.2 69 -10.8 12.6
19:45 1022 30.18 851 25.13 -6.1 21.1 69 -10.8 12.6
19:50 1022 30.18 851 25.13 -6.1 21.1 69 -10.9 12.5
19:55 1022 30.18 851 25.13 -6.1 21.1 69 -10.9 12.4
20:00 1022 30.18 851 25.13 -6.1 21.1 70 -10.7 12.7
20:05 1022 30.18 851 25.13 -6.1 21 70 -10.8 12.6
20:10 1022 30.18 851 25.13 -6.3 20.7 71 -10.7 12.7
20:15 1022 30.18 851 25.13 -6.3 20.7 70 -10.8 12.5
20:20 1022 30.18 851 25.13 -6.2 20.8 69 -11 12.1
20:25 1022 30.18 851 25.13 -6.4 20.5 70 -11.1 12
20:30 1022 30.18 851 25.13 -6.5 20.2 69 -11.2 11.8
20:35 1022 30.18 851 25.13 -6.6 20.2 71 -11 12.2
20:40 1022 30.18 851 25.13 -6.8 19.8 70 -11.4 11.5
20:45 1022 30.18 851 25.13 -6.8 19.8 69 -11.6 11.1
20:50 1022 30.18 851 25.13 -7.1 19.3 70 -11.6 11.2
20:55 1022 30.18 851 25.13 -7.2 19.1 71 -11.5 11.3
21:00 1022 30.18 852 25.16 -7.1 19.3 71 -11.5 11.2
21:05 1022 30.18 852 25.16 -6.9 19.6 70 -11.5 11.4
21:10 1022 30.18 851 25.13 -6.8 19.7 69 -11.6 11.1
21:15 1022 30.18 851 25.13 -6.8 19.7 70 -11.5 11.3
21:20 1022 30.18 852 25.16 -6.8 19.7 69 -11.5 11.3
21:25 1022 30.18 852 25.16 -6.8 19.8 69 -11.5 11.3
21:30 1022 30.18 852 25.16 -6.7 19.9 69 -11.5 11.3
21:35 1022 30.18 852 25.16 -6.7 20 67 -11.7 10.9
21:40 1022 30.18 852 25.16 -6.6 20.1 67 -11.8 10.8
21:45 1022 30.18 852 25.16 -6.7 19.9 68 -11.7 10.9
21:50 1022 30.18 852 25.16 -6.7 19.9 68 -11.7 10.9
21:55 1022 30.18 852 25.16 -6.7 19.9 68 -11.7 11
22:00 1023 30.21 852 25.16 -6.7 19.9 69 -11.5 11.3
22:05 1023 30.21 852 25.16 -6.8 19.7 70 -11.4 11.6
22:10 1022 30.18 852 25.16 -7 19.4 71 -11.4 11.4
22:15 1022 30.18 852 25.16 -7.1 19.2 70 -11.7 11
22:20 1022 30.18 852 25.16 -7.2 19 71 -11.7 10.9
22:25 1023 30.21 852 25.16 -7.3 18.8 70 -11.8 10.7
22:30 1023 30.21 852 25.16 -7.6 18.4 71 -11.9 10.6
22:35 1023 30.21 852 25.16 -7.7 18.1 73 -11.8 10.8
22:40 1023 30.21 852 25.16 -7.8 18 74 -11.6 11.1
22:45 1023 30.21 852 25.16 -7.8 18 75 -11.5 11.3
22:50 1022 30.18 852 25.16 -7.8 18 76 -11.3 11.7
22:55 1022 30.18 852 25.16 -7.8 17.9 76 -11.4 11.5
23:00 1023 30.21 852 25.16 -7.9 17.8 76 -11.5 11.4
23:05 1023 30.21 852 25.16 -8 17.7 74 -11.8 10.8
23:10 1023 30.21 852 25.16 -8 17.6 74 -11.9 10.5
23:15 1023 30.21 852 25.16 -8.1 17.5 74 -12 10.5
23:20 1023 30.21 852 25.16 -8 17.5 74 -12 10.5
23:25 1023 30.21 852 25.16 -8.1 17.5 72 -12.2 10
23:30 1023 30.21 852 25.16 -8 17.6 72 -12.2 10.1
23:35 1023 30.21 852 25.16 -7.9 17.7 73 -12.1 10.3
23:40 1023 30.21 852 25.16 -7.9 17.8 72 -12.1 10.1
23:45 1023 30.21 852 25.16 -7.9 17.8 72 -12.1 10.3
23:50 1023 30.21 852 25.16 -7.9 17.9 72 -12 10.3
23:55 1023 30.21 852 25.16 -7.9 17.7 72 -12.1 10.2
24:00 1023 30.21 852 25.16 -8 17.6 73 -12 10.3